首页
METAR-TAF:

METAR-TAF

机场 :

多伦多, 安大略省, 加拿大

多倫多皮爾遜國際機場

纬度: 43-40N, 经度: 079-38W, 海拔: 173米

当前天气观测

该预报发布于53分钟前的06:00 UTC
风速14节,风向西南,有时为22节阵风
温度 1°C
湿度 64%
气压 1004 hPa
能見度: 24.1公里
散云层高于12000英尺

METAR: CYYZ 200600Z 23014G22KT 15SM SCT120 01/M05 A2964 RMK AC3 SLP046

时间: 01:53 (06:53 UTC)

预报

该预报发布于1小时和6分钟前的05:47 UTC
预报有效从20日的 06点(UTC)到 21日的 12点(UTC)
风速15节,风向西南,有时为25节阵风
能見度: 10公里
多云层高于14000英尺
从 20日的 1200点(UTC)
风速15节,风向西南
能見度: 10公里
多云层高于2000英尺
阴天层高于18000英尺
从 20日的 1600点(UTC)
风速12节,风向西转西南,有时为22节阵风
能見度: 10公里
散云层高于2000英尺
多云层高于16000英尺
成为
从 20日的 20点(UTC)到 20日的 22点(UTC)
风速10节,风向西转西南
从 21日的 0300点(UTC)
风速8节,风向西南
能見度: 10公里
多云层高于1200英尺
从 21日的 0800点(UTC)
风速6节,风向南转西南
能見度: 9.7公里
多云层高于400英尺
轻雾
几率 30%
从 21日的 08点(UTC)到 21日的 12点(UTC)
能見度: 1.6公里
阴天层高于200英尺
轻雾

TAF: CYYZ 200547Z 2006/2112 23015G25KT P6SM BKN140 FM201200 23015KT P6SM BKN020 OVC180 FM201600 25012G22KT P6SM SCT020 BKN160 BECMG 2020/2022 25010KT FM210300 23008KT P6SM BKN012 FM210800 20006KT 6SM BR BKN004 PROB30 2108/2112 1SM BR OVC002 RMK NXT FCST BY 200900Z

超过4000个机场的气象观测和天气预报(METAR&TAF报告)。

可查询的气象台以黄色和红色小点在地图上表示。

将鼠标移到小点上方,可查看气象台名称。

然后点击查看天气观测和预报。

如需切换地图:点击带黑十字的绿色按钮放大地图;点击带横线的绿色按钮缩小地图;或者点击绿色箭头查看邻近地区的地图。


METAR-TAF: